OEECO LOWS-EDFE
Flight info
| Callsign | OEECO |
|---|---|
| Flight time | 1h 3m |
| Altitude | 24000 |
| Route | INROM DCT SIMBA Y700 NENUM T161 AKINI T159 SPESA DCT CHA |
| Aircraft | PC12/L-SDFGRWY/S |
Departure
| Time | 2026-04-22 12:35 |
|---|---|
| Airport | Salzburg Airport (LOWS) |
Arrival
| Time | 2026-04-22 13:38 |
|---|---|
| Airport | Frankfurt-Egelsbach Airport (EDFE) |
| Time | Latitude | Longitude | Altitude | Speed | Heading |
|---|---|---|---|---|---|
| 2026-04-22 12:10 | 47.79728 | 12.99684 | 1418 ft | 0 kts | 338° |
| 2026-04-22 12:29 | 47.79753 | 12.99736 | 1418 ft | 14 kts | 66° |
| 2026-04-22 12:29 | 47.79768 | 12.99844 | 1419 ft | 14 kts | 129° |
| 2026-04-22 12:30 | 47.79484 | 13.00037 | 1419 ft | 20 kts | 160° |
| 2026-04-22 12:30 | 47.79377 | 13.00103 | 1419 ft | 18 kts | 155° |
| 2026-04-22 12:30 | 47.79214 | 13.00203 | 1418 ft | 34 kts | 155° |
| 2026-04-22 12:31 | 47.79012 | 13.00334 | 1416 ft | 26 kts | 157° |
| 2026-04-22 12:31 | 47.78831 | 13.00444 | 1416 ft | 35 kts | 158° |
| 2026-04-22 12:31 | 47.78603 | 13.00591 | 1418 ft | 24 kts | 151° |
| 2026-04-22 12:31 | 47.78432 | 13.00696 | 1418 ft | 23 kts | 157° |
| 2026-04-22 12:32 | 47.78257 | 13.00808 | 1417 ft | 20 kts | 148° |
| 2026-04-22 12:32 | 47.78191 | 13.00895 | 1416 ft | 0 kts | 116° |
| 2026-04-22 12:33 | 47.78200 | 13.01045 | 1413 ft | 19 kts | 61° |
| 2026-04-22 12:33 | 47.78247 | 13.01075 | 1414 ft | 2 kts | 346° |
| 2026-04-22 12:33 | 47.78248 | 13.01075 | 1414 ft | 1 kts | 350° |
| 2026-04-22 12:34 | 47.78251 | 13.01073 | 1414 ft | 4 kts | 344° |
| 2026-04-22 12:34 | 47.78446 | 13.00951 | 1416 ft | 61 kts | 336° |
| 2026-04-22 12:34 | 47.78981 | 13.00618 | 1538 ft | 92 kts | 337° |
| 2026-04-22 12:34 | 47.79580 | 13.00207 | 1992 ft | 99 kts | 337° |
| 2026-04-22 12:35 | 47.80210 | 12.99718 | 2499 ft | 108 kts | 338° |
| 2026-04-22 12:35 | 47.81019 | 12.99323 | 2816 ft | 135 kts | 346° |
| 2026-04-22 12:35 | 47.82012 | 12.98928 | 3095 ft | 161 kts | 3° |
| 2026-04-22 12:35 | 47.83116 | 12.99388 | 3429 ft | 173 kts | 32° |
| 2026-04-22 12:36 | 47.84139 | 13.00472 | 3762 ft | 186 kts | 38° |
| 2026-04-22 12:36 | 47.85178 | 13.01608 | 4295 ft | 190 kts | 37° |
| 2026-04-22 12:36 | 47.86266 | 13.02783 | 4824 ft | 195 kts | 37° |
| 2026-04-22 12:36 | 47.87371 | 13.03980 | 5350 ft | 196 kts | 37° |
| 2026-04-22 12:37 | 47.88484 | 13.05180 | 5870 ft | 199 kts | 37° |
| 2026-04-22 12:37 | 47.89612 | 13.06394 | 6399 ft | 201 kts | 38° |
| 2026-04-22 12:37 | 47.90753 | 13.07631 | 6911 ft | 203 kts | 37° |
| 2026-04-22 12:37 | 47.91897 | 13.08873 | 7416 ft | 203 kts | 37° |
| 2026-04-22 12:38 | 47.93048 | 13.10120 | 7932 ft | 205 kts | 37° |
| 2026-04-22 12:38 | 47.94204 | 13.11373 | 8449 ft | 205 kts | 37° |
| 2026-04-22 12:38 | 47.95350 | 13.12615 | 8970 ft | 207 kts | 37° |
| 2026-04-22 12:38 | 47.96515 | 13.13879 | 9501 ft | 207 kts | 38° |
| 2026-04-22 12:39 | 47.97676 | 13.15138 | 10042 ft | 206 kts | 37° |
| 2026-04-22 12:39 | 48.00197 | 13.17204 | 11039 ft | 211 kts | 18° |
| 2026-04-22 12:39 | 48.01665 | 13.17520 | 11540 ft | 216 kts | 5° |
| 2026-04-22 12:40 | 48.03171 | 13.17258 | 12052 ft | 221 kts | 350° |
| 2026-04-22 12:40 | 48.04611 | 13.16402 | 12567 ft | 225 kts | 336° |
| 2026-04-22 12:40 | 48.05992 | 13.15279 | 13098 ft | 225 kts | 336° |
| 2026-04-22 12:40 | 48.07376 | 13.14176 | 13636 ft | 226 kts | 336° |
| 2026-04-22 12:41 | 48.08764 | 13.13066 | 14168 ft | 227 kts | 336° |
| 2026-04-22 12:41 | 48.10156 | 13.11946 | 14651 ft | 227 kts | 336° |
| 2026-04-22 12:41 | 48.11567 | 13.10813 | 15024 ft | 233 kts | 336° |
| 2026-04-22 12:41 | 48.13003 | 13.09659 | 15401 ft | 235 kts | 336° |
| 2026-04-22 12:42 | 48.14453 | 13.08491 | 15786 ft | 238 kts | 336° |
| 2026-04-22 12:42 | 48.15898 | 13.07328 | 16168 ft | 239 kts | 336° |
| 2026-04-22 12:42 | 48.17372 | 13.06138 | 16561 ft | 241 kts | 336° |
| 2026-04-22 12:42 | 48.18848 | 13.04948 | 16953 ft | 241 kts | 336° |
| 2026-04-22 12:43 | 48.20326 | 13.03755 | 17353 ft | 242 kts | 336° |
| 2026-04-22 12:43 | 48.21807 | 13.02558 | 17758 ft | 242 kts | 336° |
| 2026-04-22 12:43 | 48.23342 | 13.01590 | 18166 ft | 238 kts | 348° |
| 2026-04-22 12:43 | 48.24963 | 13.01155 | 18576 ft | 236 kts | 355° |
| 2026-04-22 12:44 | 48.26597 | 13.00804 | 18941 ft | 237 kts | 355° |
| 2026-04-22 12:44 | 48.28230 | 13.00437 | 19304 ft | 237 kts | 355° |
| 2026-04-22 12:44 | 48.29869 | 13.00075 | 19672 ft | 238 kts | 355° |
| 2026-04-22 12:44 | 48.31507 | 12.99716 | 20049 ft | 238 kts | 355° |
| 2026-04-22 12:45 | 48.33126 | 12.99361 | 20425 ft | 238 kts | 355° |
| 2026-04-22 12:45 | 48.34768 | 12.98999 | 20809 ft | 238 kts | 355° |
| 2026-04-22 12:45 | 48.36412 | 12.98637 | 21187 ft | 239 kts | 355° |
| 2026-04-22 12:45 | 48.38055 | 12.98274 | 21571 ft | 238 kts | 355° |
| 2026-04-22 12:46 | 48.39694 | 12.97912 | 21969 ft | 238 kts | 355° |
| 2026-04-22 12:46 | 48.41330 | 12.97551 | 22369 ft | 237 kts | 355° |
| 2026-04-22 12:46 | 48.42961 | 12.97192 | 22776 ft | 237 kts | 355° |
| 2026-04-22 12:46 | 48.44588 | 12.96832 | 23188 ft | 236 kts | 355° |
| 2026-04-22 12:47 | 48.46214 | 12.96472 | 23610 ft | 236 kts | 355° |
| 2026-04-22 12:47 | 48.47837 | 12.96113 | 24001 ft | 235 kts | 355° |
| 2026-04-22 12:47 | 48.49465 | 12.95753 | 24254 ft | 239 kts | 354° |
| 2026-04-22 12:47 | 48.51124 | 12.95132 | 24270 ft | 254 kts | 343° |
| 2026-04-22 12:48 | 48.52718 | 12.93869 | 24276 ft | 265 kts | 330° |
| 2026-04-22 12:48 | 48.54118 | 12.91988 | 24275 ft | 275 kts | 316° |
| 2026-04-22 12:48 | 48.55187 | 12.89589 | 24279 ft | 284 kts | 302° |
| 2026-04-22 12:48 | 48.55941 | 12.86804 | 24275 ft | 288 kts | 296° |
| 2026-04-22 12:49 | 48.56667 | 12.83980 | 24284 ft | 289 kts | 296° |
| 2026-04-22 12:49 | 48.57404 | 12.81148 | 24277 ft | 289 kts | 297° |
| 2026-04-22 12:49 | 48.58135 | 12.78337 | 24284 ft | 287 kts | 296° |
| 2026-04-22 12:49 | 48.58861 | 12.75532 | 24278 ft | 286 kts | 296° |
| 2026-04-22 12:50 | 48.59585 | 12.72730 | 24276 ft | 285 kts | 296° |
| 2026-04-22 12:50 | 48.60308 | 12.69936 | 24269 ft | 285 kts | 296° |
| 2026-04-22 12:50 | 48.61029 | 12.67143 | 24273 ft | 285 kts | 296° |
| 2026-04-22 12:50 | 48.61741 | 12.64379 | 24269 ft | 285 kts | 296° |
| 2026-04-22 12:51 | 48.62459 | 12.61585 | 24274 ft | 285 kts | 296° |
| 2026-04-22 12:51 | 48.63177 | 12.58794 | 24276 ft | 285 kts | 296° |
| 2026-04-22 12:51 | 48.63896 | 12.55997 | 24276 ft | 285 kts | 296° |
| 2026-04-22 12:51 | 48.64615 | 12.53193 | 24276 ft | 285 kts | 296° |
| 2026-04-22 12:52 | 48.65333 | 12.50390 | 24271 ft | 285 kts | 296° |
| 2026-04-22 12:52 | 48.66048 | 12.47594 | 24272 ft | 285 kts | 296° |
| 2026-04-22 12:52 | 48.66762 | 12.44799 | 24275 ft | 285 kts | 296° |
| 2026-04-22 12:52 | 48.67477 | 12.41999 | 24276 ft | 285 kts | 296° |
| 2026-04-22 12:53 | 48.68191 | 12.39199 | 24278 ft | 285 kts | 296° |
| 2026-04-22 12:53 | 48.68903 | 12.36402 | 24274 ft | 285 kts | 296° |
| 2026-04-22 12:53 | 48.69607 | 12.33633 | 24274 ft | 285 kts | 296° |
| 2026-04-22 12:53 | 48.70319 | 12.30828 | 24280 ft | 285 kts | 296° |
| 2026-04-22 12:54 | 48.71030 | 12.28027 | 24275 ft | 285 kts | 296° |
| 2026-04-22 12:54 | 48.71738 | 12.25228 | 24277 ft | 284 kts | 296° |
| 2026-04-22 12:54 | 48.72448 | 12.22428 | 24276 ft | 285 kts | 296° |
| 2026-04-22 12:54 | 48.73157 | 12.19622 | 24277 ft | 285 kts | 296° |
| 2026-04-22 12:55 | 48.73865 | 12.16812 | 24276 ft | 285 kts | 296° |
| 2026-04-22 12:55 | 48.74574 | 12.14000 | 24277 ft | 285 kts | 296° |
| 2026-04-22 12:55 | 48.75366 | 12.11269 | 24279 ft | 281 kts | 303° |
| 2026-04-22 12:55 | 48.76301 | 12.08659 | 24280 ft | 281 kts | 303° |
| 2026-04-22 12:56 | 48.77222 | 12.06038 | 24282 ft | 282 kts | 303° |
| 2026-04-22 12:56 | 48.78126 | 12.03445 | 24281 ft | 282 kts | 303° |
| 2026-04-22 12:56 | 48.79051 | 12.00807 | 24281 ft | 282 kts | 303° |
| 2026-04-22 12:56 | 48.79972 | 11.98185 | 24283 ft | 282 kts | 303° |
| 2026-04-22 12:57 | 48.80890 | 11.95562 | 24284 ft | 282 kts | 303° |
| 2026-04-22 12:57 | 48.81810 | 11.92931 | 24285 ft | 282 kts | 303° |
| 2026-04-22 12:57 | 48.82729 | 11.90300 | 24286 ft | 282 kts | 303° |
| 2026-04-22 12:57 | 48.83647 | 11.87671 | 24266 ft | 282 kts | 303° |
| 2026-04-22 12:58 | 48.84564 | 11.85042 | 24283 ft | 282 kts | 303° |
| 2026-04-22 12:58 | 48.85483 | 11.82402 | 24283 ft | 282 kts | 303° |
| 2026-04-22 12:58 | 48.86397 | 11.79774 | 24284 ft | 282 kts | 303° |
| 2026-04-22 12:58 | 48.87312 | 11.77142 | 24283 ft | 282 kts | 303° |
| 2026-04-22 12:59 | 48.88227 | 11.74507 | 24284 ft | 282 kts | 303° |
| 2026-04-22 12:59 | 48.89140 | 11.71874 | 24284 ft | 282 kts | 303° |
| 2026-04-22 12:59 | 48.90053 | 11.69240 | 24285 ft | 282 kts | 303° |
| 2026-04-22 12:59 | 48.90968 | 11.66598 | 24284 ft | 282 kts | 303° |
| 2026-04-22 13:00 | 48.91868 | 11.63994 | 24287 ft | 282 kts | 303° |
| 2026-04-22 13:00 | 48.92781 | 11.61353 | 24286 ft | 282 kts | 303° |
| 2026-04-22 13:00 | 48.93693 | 11.58709 | 24285 ft | 282 kts | 303° |
| 2026-04-22 13:00 | 48.94606 | 11.56063 | 24286 ft | 282 kts | 303° |
| 2026-04-22 13:01 | 48.95516 | 11.53420 | 24288 ft | 282 kts | 303° |
| 2026-04-22 13:01 | 48.96428 | 11.50769 | 24288 ft | 282 kts | 303° |
| 2026-04-22 13:01 | 48.97338 | 11.48118 | 24277 ft | 282 kts | 302° |
| 2026-04-22 13:01 | 48.98247 | 11.45470 | 24279 ft | 282 kts | 302° |
| 2026-04-22 13:02 | 48.99159 | 11.42816 | 24282 ft | 283 kts | 302° |
| 2026-04-22 13:02 | 49.00068 | 11.40162 | 24280 ft | 282 kts | 302° |
| 2026-04-22 13:02 | 49.00976 | 11.37510 | 24282 ft | 282 kts | 302° |
| 2026-04-22 13:02 | 49.01883 | 11.34857 | 24282 ft | 283 kts | 302° |
| 2026-04-22 13:03 | 49.02779 | 11.32232 | 24283 ft | 283 kts | 302° |
| 2026-04-22 13:03 | 49.03688 | 11.29570 | 24282 ft | 283 kts | 302° |
| 2026-04-22 13:03 | 49.04595 | 11.26908 | 24284 ft | 283 kts | 302° |
| 2026-04-22 13:03 | 49.05501 | 11.24246 | 24282 ft | 283 kts | 302° |
| 2026-04-22 13:04 | 49.06406 | 11.21588 | 24280 ft | 283 kts | 302° |
| 2026-04-22 13:04 | 49.07309 | 11.18928 | 24281 ft | 283 kts | 302° |
| 2026-04-22 13:04 | 49.08216 | 11.16257 | 24286 ft | 283 kts | 302° |
| 2026-04-22 13:04 | 49.09120 | 11.13590 | 24285 ft | 283 kts | 302° |
| 2026-04-22 13:05 | 49.10023 | 11.10925 | 24291 ft | 283 kts | 302° |
| 2026-04-22 13:05 | 49.11043 | 11.08432 | 24278 ft | 277 kts | 313° |
| 2026-04-22 13:05 | 49.12382 | 11.06337 | 24290 ft | 274 kts | 322° |
| 2026-04-22 13:05 | 49.13791 | 11.04365 | 24291 ft | 275 kts | 321° |
| 2026-04-22 13:06 | 49.15191 | 11.02377 | 24277 ft | 275 kts | 321° |
| 2026-04-22 13:06 | 49.16594 | 11.00386 | 24315 ft | 275 kts | 321° |
| 2026-04-22 13:06 | 49.17998 | 10.98400 | 24303 ft | 275 kts | 321° |
| 2026-04-22 13:06 | 49.19403 | 10.96411 | 24310 ft | 275 kts | 321° |
| 2026-04-22 13:07 | 49.20807 | 10.94421 | 24308 ft | 275 kts | 321° |
| 2026-04-22 13:07 | 49.22211 | 10.92426 | 24308 ft | 275 kts | 321° |
| 2026-04-22 13:07 | 49.23614 | 10.90432 | 24297 ft | 275 kts | 321° |
| 2026-04-22 13:07 | 49.25020 | 10.88433 | 24306 ft | 276 kts | 321° |
| 2026-04-22 13:08 | 49.26425 | 10.86435 | 24306 ft | 276 kts | 321° |
| 2026-04-22 13:08 | 49.27813 | 10.84458 | 24309 ft | 276 kts | 321° |
| 2026-04-22 13:08 | 49.29221 | 10.82451 | 24307 ft | 276 kts | 321° |
| 2026-04-22 13:08 | 49.30629 | 10.80443 | 24305 ft | 277 kts | 321° |
| 2026-04-22 13:09 | 49.32041 | 10.78428 | 24303 ft | 276 kts | 321° |
| 2026-04-22 13:09 | 49.33451 | 10.76413 | 24297 ft | 276 kts | 321° |
| 2026-04-22 13:09 | 49.34799 | 10.74307 | 24292 ft | 278 kts | 316° |
| 2026-04-22 13:09 | 49.36080 | 10.72083 | 24297 ft | 278 kts | 316° |
| 2026-04-22 13:10 | 49.37365 | 10.69866 | 24302 ft | 278 kts | 316° |
| 2026-04-22 13:10 | 49.38654 | 10.67654 | 24301 ft | 278 kts | 316° |
| 2026-04-22 13:10 | 49.39926 | 10.65465 | 24303 ft | 279 kts | 316° |
| 2026-04-22 13:10 | 49.41216 | 10.63239 | 24305 ft | 279 kts | 316° |
| 2026-04-22 13:11 | 49.42507 | 10.61009 | 24306 ft | 279 kts | 316° |
| 2026-04-22 13:11 | 49.43801 | 10.58775 | 24308 ft | 279 kts | 316° |
| 2026-04-22 13:11 | 49.45097 | 10.56533 | 24309 ft | 279 kts | 316° |
| 2026-04-22 13:11 | 49.46389 | 10.54298 | 24309 ft | 279 kts | 316° |
| 2026-04-22 13:12 | 49.47680 | 10.52063 | 24311 ft | 279 kts | 316° |
| 2026-04-22 13:12 | 49.48968 | 10.49829 | 24312 ft | 279 kts | 316° |
| 2026-04-22 13:12 | 49.50242 | 10.47617 | 24309 ft | 279 kts | 316° |
| 2026-04-22 13:12 | 49.51533 | 10.45376 | 24310 ft | 280 kts | 316° |
| 2026-04-22 13:13 | 49.52827 | 10.43130 | 24312 ft | 280 kts | 316° |
| 2026-04-22 13:13 | 49.54116 | 10.40887 | 24312 ft | 280 kts | 316° |
| 2026-04-22 13:13 | 49.55406 | 10.38640 | 24314 ft | 280 kts | 316° |
| 2026-04-22 13:13 | 49.56698 | 10.36388 | 24293 ft | 280 kts | 316° |
| 2026-04-22 13:14 | 49.57988 | 10.34139 | 24313 ft | 280 kts | 316° |
| 2026-04-22 13:14 | 49.59281 | 10.31884 | 24314 ft | 281 kts | 316° |
| 2026-04-22 13:14 | 49.60576 | 10.29622 | 24312 ft | 281 kts | 316° |
| 2026-04-22 13:14 | 49.61851 | 10.27391 | 24308 ft | 281 kts | 316° |
| 2026-04-22 13:15 | 49.63144 | 10.25128 | 24304 ft | 281 kts | 316° |
| 2026-04-22 13:15 | 49.64437 | 10.22863 | 24304 ft | 281 kts | 316° |
| 2026-04-22 13:15 | 49.65730 | 10.20597 | 24305 ft | 281 kts | 316° |
| 2026-04-22 13:15 | 49.67024 | 10.18327 | 24304 ft | 281 kts | 316° |
| 2026-04-22 13:16 | 49.68315 | 10.16059 | 24306 ft | 281 kts | 316° |
| 2026-04-22 13:16 | 49.69610 | 10.13783 | 24296 ft | 281 kts | 316° |
| 2026-04-22 13:16 | 49.70903 | 10.11509 | 24302 ft | 281 kts | 316° |
| 2026-04-22 13:16 | 49.72196 | 10.09232 | 24301 ft | 281 kts | 316° |
| 2026-04-22 13:17 | 49.73486 | 10.06957 | 24304 ft | 281 kts | 316° |
| 2026-04-22 13:17 | 49.74775 | 10.04684 | 24302 ft | 281 kts | 316° |
| 2026-04-22 13:17 | 49.76049 | 10.02437 | 24306 ft | 281 kts | 316° |
| 2026-04-22 13:17 | 49.77354 | 10.00131 | 24305 ft | 282 kts | 316° |
| 2026-04-22 13:18 | 49.78630 | 9.97874 | 24294 ft | 281 kts | 316° |
| 2026-04-22 13:18 | 49.79921 | 9.95589 | 24296 ft | 282 kts | 316° |
| 2026-04-22 13:18 | 49.81213 | 9.93299 | 24296 ft | 282 kts | 316° |
| 2026-04-22 13:18 | 49.82505 | 9.91009 | 24299 ft | 283 kts | 315° |
| 2026-04-22 13:19 | 49.83800 | 9.88711 | 24262 ft | 284 kts | 315° |
| 2026-04-22 13:19 | 49.84649 | 9.87201 | 24098 ft | 275 kts | 315° |
| 2026-04-22 13:19 | 49.85902 | 9.84971 | 23849 ft | 274 kts | 316° |
| 2026-04-22 13:19 | 49.87152 | 9.82751 | 23564 ft | 273 kts | 316° |
| 2026-04-22 13:20 | 49.88394 | 9.80522 | 23279 ft | 273 kts | 313° |
| 2026-04-22 13:20 | 49.89392 | 9.77983 | 22995 ft | 279 kts | 299° |
| 2026-04-22 13:20 | 49.90127 | 9.75199 | 22719 ft | 279 kts | 296° |
| 2026-04-22 13:20 | 49.90859 | 9.72416 | 22452 ft | 278 kts | 297° |
| 2026-04-22 13:21 | 49.91598 | 9.69638 | 22181 ft | 278 kts | 297° |
| 2026-04-22 13:21 | 49.92330 | 9.66859 | 21911 ft | 278 kts | 296° |
| 2026-04-22 13:21 | 49.92820 | 9.63940 | 21642 ft | 283 kts | 281° |
| 2026-04-22 13:21 | 49.92818 | 9.60870 | 21372 ft | 288 kts | 266° |
| 2026-04-22 13:22 | 49.92315 | 9.57849 | 20864 ft | 290 kts | 250° |
| 2026-04-22 13:22 | 49.91541 | 9.54952 | 20351 ft | 289 kts | 249° |
| 2026-04-22 13:22 | 49.90777 | 9.52069 | 19850 ft | 289 kts | 250° |
| 2026-04-22 13:22 | 49.90032 | 9.49229 | 19364 ft | 288 kts | 250° |
| 2026-04-22 13:23 | 49.89278 | 9.46363 | 18884 ft | 286 kts | 249° |
| 2026-04-22 13:23 | 49.88522 | 9.43507 | 18373 ft | 285 kts | 249° |
| 2026-04-22 13:23 | 49.87772 | 9.40675 | 17832 ft | 283 kts | 249° |
| 2026-04-22 13:23 | 49.87041 | 9.37861 | 17293 ft | 280 kts | 252° |
| 2026-04-22 13:24 | 49.86664 | 9.34923 | 16752 ft | 275 kts | 269° |
| 2026-04-22 13:24 | 49.86794 | 9.32001 | 16228 ft | 269 kts | 285° |
| 2026-04-22 13:24 | 49.87301 | 9.29224 | 15721 ft | 266 kts | 291° |
| 2026-04-22 13:24 | 49.87833 | 9.26472 | 15222 ft | 265 kts | 290° |
| 2026-04-22 13:25 | 49.88353 | 9.23741 | 14734 ft | 264 kts | 290° |
| 2026-04-22 13:25 | 49.88871 | 9.21021 | 14245 ft | 262 kts | 290° |
| 2026-04-22 13:25 | 49.89386 | 9.18326 | 13727 ft | 261 kts | 290° |
| 2026-04-22 13:25 | 49.89900 | 9.15636 | 13188 ft | 259 kts | 289° |
| 2026-04-22 13:26 | 49.90408 | 9.12958 | 12645 ft | 259 kts | 289° |
| 2026-04-22 13:26 | 49.90895 | 9.10391 | 12005 ft | 251 kts | 289° |
| 2026-04-22 13:26 | 49.91672 | 9.07974 | 11347 ft | 252 kts | 317° |
| 2026-04-22 13:26 | 49.93159 | 9.06729 | 10719 ft | 242 kts | 355° |
| 2026-04-22 13:27 | 49.94747 | 9.07161 | 10102 ft | 231 kts | 33° |
| 2026-04-22 13:27 | 49.95818 | 9.08914 | 9444 ft | 223 kts | 59° |
| 2026-04-22 13:27 | 49.96587 | 9.10987 | 8803 ft | 219 kts | 63° |
| 2026-04-22 13:27 | 49.97309 | 9.13055 | 8177 ft | 217 kts | 63° |
| 2026-04-22 13:28 | 49.98320 | 9.14752 | 7532 ft | 221 kts | 31° |
| 2026-04-22 13:28 | 49.99845 | 9.15048 | 6894 ft | 230 kts | 351° |
| 2026-04-22 13:28 | 50.01197 | 9.13720 | 6238 ft | 237 kts | 311° |
| 2026-04-22 13:28 | 50.01741 | 9.11333 | 5568 ft | 238 kts | 271° |
| 2026-04-22 13:29 | 50.01471 | 9.08832 | 4940 ft | 233 kts | 256° |
| 2026-04-22 13:29 | 50.01034 | 9.06443 | 4308 ft | 233 kts | 254° |
| 2026-04-22 13:29 | 50.00577 | 9.04053 | 3676 ft | 228 kts | 254° |
| 2026-04-22 13:29 | 50.00120 | 9.01695 | 3036 ft | 228 kts | 254° |
| 2026-04-22 13:30 | 49.99665 | 8.99399 | 2406 ft | 217 kts | 253° |
| 2026-04-22 13:30 | 49.99225 | 8.97217 | 2027 ft | 196 kts | 254° |
| 2026-04-22 13:30 | 49.98818 | 8.95282 | 1976 ft | 180 kts | 253° |
| 2026-04-22 13:30 | 49.98469 | 8.93560 | 1978 ft | 179 kts | 254° |
| 2026-04-22 13:31 | 49.98089 | 8.91704 | 1986 ft | 182 kts | 253° |
| 2026-04-22 13:31 | 49.97712 | 8.89831 | 2008 ft | 184 kts | 253° |
| 2026-04-22 13:31 | 49.97348 | 8.88089 | 1982 ft | 179 kts | 253° |
| 2026-04-22 13:31 | 49.97030 | 8.86490 | 1991 ft | 177 kts | 255° |
| 2026-04-22 13:32 | 49.96650 | 8.84642 | 1987 ft | 180 kts | 252° |
| 2026-04-22 13:32 | 49.96267 | 8.82800 | 2007 ft | 178 kts | 253° |
| 2026-04-22 13:32 | 49.95899 | 8.80910 | 1897 ft | 186 kts | 255° |
| 2026-04-22 13:32 | 49.95637 | 8.78968 | 1823 ft | 183 kts | 269° |
| 2026-04-22 13:33 | 49.95794 | 8.77021 | 1799 ft | 182 kts | 281° |
| 2026-04-22 13:33 | 49.95857 | 8.75066 | 1753 ft | 186 kts | 268° |
| 2026-04-22 13:33 | 49.95763 | 8.73099 | 1648 ft | 169 kts | 267° |
| 2026-04-22 13:33 | 49.95688 | 8.71320 | 1654 ft | 160 kts | 271° |
| 2026-04-22 13:34 | 49.95714 | 8.69609 | 1615 ft | 157 kts | 274° |
| 2026-04-22 13:34 | 49.95764 | 8.67910 | 1556 ft | 157 kts | 275° |
| 2026-04-22 13:34 | 49.95820 | 8.66217 | 1434 ft | 159 kts | 278° |
| 2026-04-22 13:34 | 49.96325 | 8.64830 | 1354 ft | 144 kts | 324° |
| 2026-04-22 13:35 | 49.96770 | 8.63574 | 1460 ft | 138 kts | 271° |
| 2026-04-22 13:35 | 49.96326 | 8.62396 | 1159 ft | 127 kts | 212° |
| 2026-04-22 13:35 | 49.95481 | 8.62255 | 1274 ft | 127 kts | 155° |
| 2026-04-22 13:35 | 49.94716 | 8.62989 | 1312 ft | 138 kts | 138° |
| 2026-04-22 13:36 | 49.93873 | 8.63525 | 1417 ft | 133 kts | 187° |
| 2026-04-22 13:36 | 49.93402 | 8.62372 | 1316 ft | 137 kts | 288° |
| 2026-04-22 13:36 | 49.93966 | 8.61549 | 1225 ft | 98 kts | 336° |
| 2026-04-22 13:36 | 49.94545 | 8.61154 | 1007 ft | 88 kts | 351° |
| 2026-04-22 13:37 | 49.95129 | 8.61015 | 891 ft | 82 kts | 7° |
| 2026-04-22 13:37 | 49.95632 | 8.61412 | 756 ft | 87 kts | 47° |
| 2026-04-22 13:37 | 49.95944 | 8.62265 | 531 ft | 91 kts | 65° |
| 2026-04-22 13:37 | 49.96035 | 8.63225 | 382 ft | 91 kts | 79° |
| 2026-04-22 13:38 | 49.96079 | 8.63995 | 384 ft | 41 kts | 85° |
| 2026-04-22 13:38 | 49.96109 | 8.64233 | 388 ft | 3 kts | 327° |
| 2026-04-22 13:38 | 49.96153 | 8.64184 | 387 ft | 7 kts | 322° |
| 2026-04-22 13:39 | 49.96172 | 8.64118 | 386 ft | 10 kts | 329° |
| 2026-04-22 13:39 | 49.96209 | 8.64103 | 385 ft | 2 kts | 211° |
| 2026-04-22 13:39 | 49.96208 | 8.64103 | 385 ft | 0 kts | 191° |